createdAt,value
2023-08-08T00:00:51.089Z,41.64
2023-08-08T00:05:52.391Z,41.68
2023-08-08T00:10:53.677Z,41.41
2023-08-08T00:15:55.060Z,41.21
2023-08-08T00:20:56.416Z,41.16
2023-08-08T00:25:57.733Z,41.00
2023-08-08T00:30:59.063Z,40.63
2023-08-08T00:36:00.402Z,40.73
2023-08-08T00:41:01.800Z,40.49
2023-08-08T00:46:03.130Z,40.54
2023-08-08T00:51:04.429Z,40.56
2023-08-08T00:56:06.011Z,40.44
2023-08-08T01:01:07.428Z,40.63
2023-08-08T01:06:21.263Z,40.61
2023-08-08T01:11:22.568Z,40.57
2023-08-08T01:16:24.149Z,40.40
2023-08-08T01:21:25.701Z,40.24
2023-08-08T01:26:27.089Z,40.43
2023-08-08T01:31:28.445Z,40.20
2023-08-08T01:36:48.552Z,40.38
2023-08-08T01:41:49.857Z,40.41
2023-08-08T01:46:51.814Z,40.43
2023-08-08T01:51:53.345Z,40.09
2023-08-08T01:56:54.643Z,40.04
2023-08-08T02:01:55.970Z,39.88
2023-08-08T02:06:57.293Z,39.94
2023-08-08T02:11:58.834Z,39.63
2023-08-08T02:17:00.303Z,39.75
2023-08-08T02:22:01.871Z,39.49
2023-08-08T02:27:03.446Z,39.41
2023-08-08T02:32:04.896Z,39.25
2023-08-08T02:37:06.258Z,39.35
2023-08-08T02:42:07.555Z,38.94
2023-08-08T02:47:08.872Z,38.98
2023-08-08T02:52:10.363Z,38.95
2023-08-08T02:57:12.824Z,39.12
2023-08-08T03:02:14.157Z,38.96
2023-08-08T03:07:15.455Z,38.80
2023-08-08T03:12:16.808Z,38.86
2023-08-08T03:17:18.080Z,38.67
2023-08-08T03:22:19.443Z,38.96
2023-08-08T03:27:20.806Z,38.68
2023-08-08T03:32:22.616Z,38.82
2023-08-08T03:37:23.912Z,38.44
2023-08-08T03:42:25.397Z,38.59
2023-08-08T03:47:26.754Z,38.71
2023-08-08T03:52:28.232Z,38.59
2023-08-08T03:57:29.562Z,38.56
2023-08-08T04:02:30.947Z,38.62
2023-08-08T04:07:32.342Z,38.38
2023-08-08T04:12:34.059Z,38.55
2023-08-08T04:17:35.391Z,38.74
2023-08-08T04:22:36.827Z,38.59
2023-08-08T04:27:38.211Z,38.66
2023-08-08T04:32:39.646Z,38.62
2023-08-08T04:37:41.026Z,38.43
2023-08-08T04:42:42.325Z,38.57
2023-08-08T04:47:43.735Z,38.53
2023-08-08T04:52:45.063Z,38.76
2023-08-08T04:57:46.356Z,38.83
2023-08-08T05:02:47.755Z,38.67
2023-08-08T05:07:49.103Z,38.62
2023-08-08T05:12:50.416Z,38.41
2023-08-08T05:17:52.311Z,38.47
2023-08-08T05:22:53.666Z,38.59
2023-08-08T05:27:55.083Z,38.89
2023-08-08T05:32:56.396Z,38.88
2023-08-08T05:37:57.699Z,38.73
2023-08-08T05:42:59.022Z,38.61
2023-08-08T05:48:01.427Z,38.50
2023-08-08T05:53:02.795Z,38.54
2023-08-08T05:58:05.114Z,39.27
2023-08-08T06:03:06.625Z,38.92
2023-08-08T06:08:12.404Z,38.97
2023-08-08T06:13:13.700Z,39.00
2023-08-08T06:18:14.984Z,38.85
2023-08-08T06:23:16.467Z,38.82
2023-08-08T06:28:17.869Z,38.78
2023-08-08T06:33:19.296Z,38.89
2023-08-08T06:38:20.578Z,38.90
2023-08-08T06:43:21.866Z,38.90
2023-08-08T06:48:23.464Z,38.81
2023-08-08T06:53:24.768Z,38.77
2023-08-08T06:58:26.051Z,38.53
2023-08-08T07:03:27.486Z,38.36
2023-08-08T07:08:30.251Z,38.27
2023-08-08T07:13:31.549Z,38.41
2023-08-08T07:18:32.891Z,38.31
2023-08-08T07:23:34.194Z,38.24
2023-08-08T07:28:35.481Z,38.46
2023-08-08T07:33:36.785Z,38.44
2023-08-08T07:38:39.366Z,38.55
2023-08-08T07:43:40.673Z,38.45
2023-08-08T07:48:41.964Z,38.68
2023-08-08T07:53:45.089Z,38.70
2023-08-08T07:58:48.375Z,38.70
2023-08-08T08:03:49.767Z,38.81
2023-08-08T08:08:51.177Z,38.86
2023-08-08T08:13:52.482Z,39.01
2023-08-08T08:18:54.122Z,39.01
2023-08-08T08:23:55.721Z,38.91
2023-08-08T08:28:57.008Z,38.99
2023-08-08T08:33:58.292Z,38.75
2023-08-08T08:38:59.607Z,38.55
2023-08-08T08:44:00.895Z,38.42
2023-08-08T08:49:02.194Z,38.12
2023-08-08T08:54:03.519Z,38.23
2023-08-08T08:59:04.839Z,38.03
2023-08-08T09:04:08.563Z,38.15
2023-08-08T09:09:16.554Z,38.22
2023-08-08T09:14:22.189Z,38.26
2023-08-08T09:19:23.816Z,38.43
2023-08-08T09:24:25.147Z,38.47
2023-08-08T09:29:26.477Z,38.64
2023-08-08T09:34:27.779Z,38.88
2023-08-08T09:39:29.155Z,38.75
2023-08-08T09:44:31.002Z,38.87
2023-08-08T09:49:35.146Z,38.97
2023-08-08T09:54:36.426Z,38.96
2023-08-08T09:59:38.527Z,38.94
2023-08-08T10:04:39.834Z,38.67
2023-08-08T10:09:41.115Z,38.75
2023-08-08T10:14:43.018Z,38.71
2023-08-08T10:19:50.694Z,38.39
2023-08-08T10:24:52.477Z,38.64
2023-08-08T10:29:53.806Z,38.70
2023-08-08T10:34:57.381Z,38.89
2023-08-08T10:39:59.069Z,38.31
2023-08-08T10:45:00.864Z,38.33
2023-08-08T10:50:07.523Z,38.12
2023-08-08T10:55:18.542Z,37.92
2023-08-08T11:00:20.417Z,37.79
2023-08-08T11:05:22.416Z,37.61
2023-08-08T11:10:23.998Z,37.55
2023-08-08T11:15:25.380Z,37.42
2023-08-08T11:20:29.628Z,37.21
2023-08-08T11:25:31.155Z,37.38
2023-08-08T11:30:34.149Z,37.32
2023-08-08T11:35:35.427Z,37.35
2023-08-08T11:40:36.763Z,37.08
2023-08-08T11:45:38.255Z,37.22
2023-08-08T11:50:41.072Z,37.32
2023-08-08T11:55:42.411Z,37.10
2023-08-08T12:00:43.756Z,37.05
2023-08-08T12:05:48.043Z,37.01
2023-08-08T12:10:54.110Z,36.21
2023-08-08T12:15:56.666Z,35.96
2023-08-08T12:20:58.094Z,35.70
2023-08-08T12:26:00.105Z,35.63
2023-08-08T12:31:01.717Z,35.35
2023-08-08T12:36:03.029Z,35.55
2023-08-08T12:41:04.421Z,35.69
2023-08-08T12:46:05.782Z,35.73
2023-08-08T12:51:08.524Z,35.92
2023-08-08T12:56:09.872Z,35.52
2023-08-08T13:01:11.639Z,35.85
2023-08-08T13:06:14.248Z,35.67
2023-08-08T13:11:16.015Z,35.52
2023-08-08T13:16:17.340Z,35.62
2023-08-08T13:21:18.661Z,35.46
2023-08-08T13:26:19.942Z,35.39
2023-08-08T13:31:21.227Z,35.72
2023-08-08T13:36:22.548Z,35.81
2023-08-08T13:41:24.335Z,36.51
2023-08-08T13:46:26.787Z,37.63
2023-08-08T13:51:28.314Z,38.10
2023-08-08T13:56:29.604Z,38.54
2023-08-08T14:01:30.921Z,39.05
2023-08-08T14:06:32.223Z,38.92
2023-08-08T14:11:33.544Z,38.75
2023-08-08T14:16:34.874Z,38.98
2023-08-08T14:21:36.207Z,38.97
2023-08-08T14:26:37.556Z,38.90
2023-08-08T14:31:50.433Z,39.28
2023-08-08T14:36:59.777Z,39.12
2023-08-08T14:42:01.904Z,39.41
2023-08-08T14:47:03.914Z,39.67
2023-08-08T14:52:05.455Z,39.46
2023-08-08T14:57:06.745Z,39.52
2023-08-08T15:02:08.144Z,39.36
2023-08-08T15:07:09.505Z,39.37
2023-08-08T15:12:10.788Z,39.52
2023-08-08T15:17:12.075Z,39.28
2023-08-08T15:22:13.407Z,39.40
2023-08-08T15:27:14.748Z,39.70
2023-08-08T15:32:16.033Z,39.88
2023-08-08T15:37:17.315Z,40.01
2023-08-08T15:42:18.601Z,39.68
2023-08-08T15:47:19.902Z,39.53
2023-08-08T15:52:21.189Z,39.17
2023-08-08T15:57:22.466Z,39.13
2023-08-08T16:02:23.850Z,38.69
2023-08-08T16:07:25.191Z,38.78
2023-08-08T16:12:26.472Z,38.40
2023-08-08T16:17:27.742Z,38.53
2023-08-08T16:22:29.063Z,38.74
2023-08-08T16:27:30.352Z,38.58
2023-08-08T16:32:31.664Z,38.87
2023-08-08T16:37:33.033Z,39.22
2023-08-08T16:42:34.334Z,39.24
2023-08-08T16:47:35.625Z,39.48
2023-08-08T16:52:36.943Z,40.07
2023-08-08T16:57:38.540Z,40.40
2023-08-08T17:02:39.915Z,40.67
2023-08-08T17:07:41.366Z,40.76
2023-08-08T17:12:42.638Z,40.80
2023-08-08T17:17:44.005Z,41.16
2023-08-08T17:22:45.334Z,41.30
2023-08-08T17:27:46.680Z,41.21
2023-08-08T17:32:48.201Z,41.10
2023-08-08T17:37:49.601Z,41.11
2023-08-08T17:42:50.922Z,41.27
2023-08-08T17:47:52.930Z,41.27
2023-08-08T17:52:54.286Z,41.41
2023-08-08T17:57:55.576Z,41.48
2023-08-08T18:02:58.603Z,41.44
2023-08-08T18:07:59.978Z,41.42
2023-08-08T18:13:01.354Z,41.23
2023-08-08T18:18:04.402Z,41.41
2023-08-08T18:23:05.825Z,41.44
2023-08-08T18:28:07.194Z,41.43
2023-08-08T18:33:08.576Z,41.60
2023-08-08T18:38:10.296Z,41.55
2023-08-08T18:43:11.647Z,41.46
2023-08-08T18:48:12.950Z,41.31
2023-08-08T18:53:14.264Z,41.45
2023-08-08T18:58:15.662Z,41.31
2023-08-08T19:03:17.038Z,41.24
2023-08-08T19:08:18.400Z,41.20
2023-08-08T19:13:19.703Z,41.34
2023-08-08T19:18:21.033Z,41.31
2023-08-08T19:23:22.467Z,41.30
2023-08-08T19:28:23.753Z,41.24
2023-08-08T19:33:25.054Z,41.30
2023-08-08T19:38:26.383Z,41.02
2023-08-08T19:43:27.696Z,41.30
2023-08-08T19:48:28.992Z,41.09
2023-08-08T19:53:30.292Z,41.32
2023-08-08T19:58:31.593Z,41.20
2023-08-08T20:03:33.553Z,41.37
2023-08-08T20:08:35.046Z,41.53
2023-08-08T20:13:36.336Z,41.50
2023-08-08T20:18:37.661Z,41.42
2023-08-08T20:23:38.982Z,41.56
2023-08-08T20:28:41.894Z,41.53
2023-08-08T20:33:46.198Z,41.63
2023-08-08T20:38:47.571Z,41.53
2023-08-08T20:43:48.875Z,41.48
2023-08-08T20:48:51.893Z,41.39
2023-08-08T20:53:53.930Z,41.65
2023-08-08T20:58:55.241Z,41.48
2023-08-08T21:03:56.544Z,41.61
2023-08-08T21:08:57.894Z,41.43
2023-08-08T21:13:59.202Z,41.67
2023-08-08T21:19:00.487Z,41.44
2023-08-08T21:24:01.866Z,41.80
2023-08-08T21:29:03.162Z,41.52
2023-08-08T21:34:04.511Z,41.44
2023-08-08T21:39:05.817Z,41.40
2023-08-08T21:44:07.137Z,41.42
2023-08-08T21:49:08.502Z,41.35
2023-08-08T21:54:09.800Z,41.44
2023-08-08T21:59:11.162Z,41.36
2023-08-08T22:04:12.463Z,41.03
2023-08-08T22:09:13.809Z,41.13
2023-08-08T22:14:15.111Z,40.97
2023-08-08T22:19:16.783Z,40.99
2023-08-08T22:24:18.069Z,40.81
2023-08-08T22:29:19.607Z,40.80
2023-08-08T22:34:20.894Z,40.70
2023-08-08T22:39:22.282Z,40.61
2023-08-08T22:44:23.587Z,40.47
2023-08-08T22:49:24.878Z,40.53
2023-08-08T22:54:26.248Z,40.35
2023-08-08T22:59:27.581Z,40.27
2023-08-08T23:04:28.863Z,40.33
2023-08-08T23:09:30.211Z,40.40
2023-08-08T23:14:31.494Z,40.33
2023-08-08T23:19:32.773Z,40.45
2023-08-08T23:24:34.217Z,40.67
2023-08-08T23:29:35.551Z,40.61
2023-08-08T23:34:36.853Z,40.42
2023-08-08T23:39:38.148Z,40.53
2023-08-08T23:44:41.568Z,40.64
2023-08-08T23:49:42.867Z,40.56
2023-08-08T23:54:44.164Z,40.50
2023-08-08T23:59:46.031Z,40.41
